createdAt,value
2023-03-27T00:18:23.050Z,19.5
2023-03-27T00:48:23.055Z,19.5
2023-03-27T01:18:23.056Z,19.4
2023-03-27T01:48:22.796Z,19.4
2023-03-27T02:18:23.099Z,19.2
2023-03-27T02:48:23.071Z,19.1
2023-03-27T03:18:22.787Z,19.1
2023-03-27T03:48:23.056Z,19.3
2023-03-27T04:18:23.055Z,19.5
2023-03-27T04:48:23.068Z,19.6
2023-03-27T05:18:23.076Z,19.7
2023-03-27T06:18:23.080Z,19.8
2023-03-27T06:48:23.072Z,19.9
2023-03-27T07:18:23.050Z,20.0
2023-03-27T07:48:23.148Z,20.0
2023-03-27T08:18:23.041Z,20.0
2023-03-27T09:18:23.088Z,20.0
2023-03-27T09:48:23.035Z,20.0
2023-03-27T10:18:23.057Z,20.0
2023-03-27T10:48:23.043Z,20.0
2023-03-27T11:18:23.046Z,20.0
2023-03-27T11:48:23.033Z,20.0
2023-03-27T12:18:23.032Z,20.1
2023-03-27T12:48:23.057Z,20.1
2023-03-27T13:18:23.051Z,20.1
2023-03-27T13:48:23.020Z,20.2
2023-03-27T14:18:23.055Z,20.3
2023-03-27T14:48:23.019Z,20.3
2023-03-27T15:18:23.051Z,20.3
2023-03-27T15:48:23.020Z,20.3
2023-03-27T16:18:22.745Z,20.3
2023-03-27T16:48:23.034Z,20.2
2023-03-27T17:18:23.015Z,20.3
2023-03-27T17:48:23.026Z,20.5
2023-03-27T18:18:23.025Z,20.4
2023-03-27T18:48:23.006Z,20.3
2023-03-27T19:18:23.039Z,20.3
2023-03-27T19:48:23.008Z,20.1
2023-03-27T20:18:23.010Z,20.0
2023-03-27T20:48:23.144Z,19.9
2023-03-27T21:18:22.719Z,19.9
2023-03-27T21:48:22.990Z,19.7
2023-03-27T22:18:23.004Z,19.5
2023-03-27T22:48:22.722Z,19.5
2023-03-27T23:18:23.012Z,19.3
2023-03-27T23:48:22.989Z,19.2
